Ride Results

Smythesdale 2 (07-07-2012)
Ride distance: 80.0 km

Outcomes - Smythesdale 2 (07-07-2012)
Division No. of Entries Retired / DNE Completed Withdrawn Ineligible V/O Percentage Completed
HW 7 - 4 - - 3 57.14%
MW 14 - 10 1 - 3 71.43%
LW 5 - 4 - - 1 80.00%
JN 4 - 3 - - 1 75.00%
Totals 30 - 21 1 - 8 70.00%
Results - Smythesdale 2 (07-07-2012)
No. Rider Horse Place Time Leg Speeds Total
Km/Hr
H/R bpm
Heavyweight
308 Melissa Cawthan Taylorsglen Renegade 1 (BC) 6:08:00 14.4, 11.9 13.04 30, 46, 52 (Avg:49)
862 Victoria Horton BB Allie Katt 2 7:29:00 10.9, 10.4 10.69 40, 40, 52 (Avg:46)
82 Jarrod Robinson Lambruk Park Zelida 3 7:51:00 10.3, 10.0 10.19 56, 48, 52 (Avg:50)
752 Julie Lofts Musical Gully Zanadu 4 8:18:00 9.1, 10.1 9.64 40, 35, 45 (Avg:40)
199 Peter Farrell Victoria Park Nahliera Metabolics severe L2 0:00:00 11.9, 12.8 - 38, 45, 50 (Avg:47)
76 Russell Robinson Jayay Alishah Lame L2 0:00:00 13.9, 12.1 - 47, 48, 50 (Avg:49)
191 Jake Verspaandonk Belectra BBP Chantelle Lame L2 0:00:00 11.6, 15.4 - 30, 42, 46 (Avg:44)
Middleweight
189 Sally Cowan Willabee Park Ackwell 1 (BC) 5:56:00 15.0, 12.2 13.48 43, 48, 53 (Avg:50)
77 Trish Reeves Marybank Celia 2 6:11:00 15.0, 11.3 12.94 28, 41, 48 (Avg:44)
192 Tabitha Shmetzer Mullungdung Begorrah 3 6:50:00 11.4, 11.9 11.71 40, 51, 53 (Avg:52)
756 Lucy Barrack TMD Legends R Pretty 4 7:06:00 11.3, 11.2 11.27 41, 47, 54 (Avg:50)
160 Jo-Anne Francis Musk Valley Rememberance 4 7:06:00 11.3, 11.2 11.27 35, 41, 46 (Avg:43)
155 Karen Alderton Bara Park Rosanne 6 7:29:00 10.9, 10.4 10.69 37, 43, 50 (Avg:46)
181 Sharee Court Makaveli Soulja 7 7:32:00 10.6, 10.5 10.62 35, 44, 54 (Avg:49)
89 Sheryl Herbert Krishlah Maleeka 8 7:53:00 10.6, 9.7 10.15 35, 44, 50 (Avg:47)
758 Jessica Remfry Music Maker 8 7:53:00 10.6, 9.7 10.15 37, 41, 49 (Avg:45)
175 Dianne Leehane Tarara Malone 10 7:59:00 10.0, 9.9 10.02 30, 37, 47 (Avg:42)
883 Sheleah Astell Sandine Shakurra Gall or injury L2 0:00:00 10.9, 10.4 - 36, 43, 48 (Avg:45)
351 Steve Blackhurst Jenalea Regal Fyre Lame L2 0:00:00 10.6, 10.6 - 34, 53, 52 (Avg:52)
67 John Osboldstone Shakira Withdrawn L1 0:00:00 - - 39, 42 (Avg:42)
755 Nicole Pearson Passion Park Simba Lame L1 0:00:00 11.4 - 44, 52 (Avg:52)
Lightweight
208 Janeen Smith Pterion Leonardo 1 (BC) 6:08:00 14.4, 11.9 13.04 32, 40, 51 (Avg:45)
113 Lisa Worden Weerina Arabian Princess 2 7:29:00 10.6, 10.6 10.69 30, 37, 40 (Avg:38)
742 Kerry Alderton Mireen Yasmeera 3 7:32:00 10.6, 10.5 10.62 38, 53, 48 (Avg:50)
61 Lois Sharam Musical Gully Carousel 4 8:48:00 9.1, 9.0 9.09 35, 44, 54 (Avg:49)
871 Jamie Gardner Webbs Creek Spirit Lame P/R 0:00:00 - - 35
Junior
195 Nikita Verspaandonk Wally 1 6:15:00 11.6, 14.1 12.80 40, 41, 53 (Avg:47)
90 Samantha Noble Springridge Bungendore 2 (BC) 7:51:00 10.3, 10.0 10.19 28, 37, 40 (Avg:38)
902 Lucy Mills Billie 3 7:59:00 10.0, 9.9 10.02 36, 45, 51 (Avg:48)
747 Charlie Chila Saracus Sakmhir Lame L2 0:00:00 11.4, 11.9 - 34, 39, 48 (Avg:43)